Aeroporto :
LOGIN :

Iscrizione | Disclaimer

   EN    FR    IT 

 










Sommario :    VFR   VFR Marginale   IFR   IFR Intensivo   IFR Molto Intensivo
Visibilità : 
Base nubi : 
>= 8 km
>= 3000ft
5 / 8 km
1000 / 3000 ft
1500m / 5 km
500 / 1000 ft
800 / 1500m
200 / 500 ft
< 800m
< 200 ft
Simboli :   Temporali  Nebbia  Neve Forte  Precipitazioni Forti  Vento > 20 kt
SIGMETs :   Varie  Temporali  Ghiacco  Turbolenza  Onda orograficha  Ceneri Vulcaniche






- Altitudine del aeroporto : 992 ft


LIRV - Roma Viterbo Air Force Base (military)

ULTIMO METAR :
  • 141955Z 01005KT CAVOK 24/14 Q1012 RMK SKC MON E SE LIB NC VIS MIN 9999 WIND THR04 /////KT BLU

METARs OBSOLETI :
  • 141855Z 36008KT CAVOK 25/12 Q1012 RMK SKC MON E SE LIB NC VIS MIN 9999 WIND THR04 /////KT BLU
  • 141755Z 02010KT CAVOK 26/11 Q1012 RMK SKC MON E SE LIB NC VIS MIN 9999 WIND THR04 /////KT BLU

TAF COR TAF LIRV
Valido dal 14 a 21 ore il 15 a 06 ore UTC


142016Z 1421/1506 02006KT 9999 SCT045



MetMap, La meteo Aeronautica in un colpo d'occhio ! - Copyright ORBIFLY Dicembre 2007 - Disclaimer

ORBIFLY MET'MAP TEAM :

Programmazione e sviluppo : Alexandra Zaïnal
Concezione : Baudouin d'Aumeries
Aiuto per la programmazione : Marc-Olivier Méhu
Supporto tecnico e logistico : Manuel Goepfert
Aiuto per la traduzione : Arnaldo La Scala

Contatto : metmap@orbifly.com




FONTI E CREDITI :

   NOAA